Time;durP1;ratioP1;P1;durP2;ratioP2;P2;SDS_P1;SDS_P2;PMS_P1;PMS_P2;Temp;Humidity;BMP_temperature;BMP_pressure;BME280_temperature;BME280_humidity;BME280_pressure;Samples;Min_cycle;Max_cycle;Signal;HPM_P1;HPM_P2
2023/10/05 04:47:13;;;;;;;19.20;16.63;;;;;;;11.34;100.00;95894.59;6021803;23;20029;-79
2023/10/05 04:54:57;;;;;;;21.00;17.20;;;;;;;11.57;100.00;95910.47;4959605;23;20071;-84
2023/10/05 04:57:34;;;;;;;21.75;17.08;;;;;;;11.53;100.00;95899.56;4973307;28;20027;-83
2023/10/05 05:07:45;;;;;;;26.50;20.48;;;;;;;11.56;100.00;95890.66;5897839;23;20071;-82
2023/10/05 05:12:49;;;;;;;19.77;16.35;;;;;;;11.85;100.00;95883.41;5791708;23;20056;-85
2023/10/05 05:15:15;;;;;;;19.08;15.02;;;;;;;12.22;100.00;95869.28;4907159;29;20041;-85
2023/10/05 05:17:40;;;;;;;24.27;16.50;;;;;;;12.17;100.00;95863.75;4908162;29;20028;-85
2023/10/05 05:20:11;;;;;;;17.20;14.10;;;;;;;12.25;100.00;95868.94;4906629;29;20028;-84
2023/10/05 05:22:37;;;;;;;17.92;16.10;;;;;;;12.40;100.00;95864.75;4907040;29;20486;-87
2023/10/05 05:25:06;;;;;;;52.72;19.60;;;;;;;12.66;100.00;95837.69;4907400;29;20024;-86
2023/10/05 05:27:33;;;;;;;45.63;17.65;;;;;;;12.95;100.00;95819.00;4906398;29;20075;-86
2023/10/05 05:29:59;;;;;;;16.92;15.13;;;;;;;13.19;100.00;95802.59;4905103;29;20119;-85
2023/10/05 05:32:24;;;;;;;17.75;15.90;;;;;;;13.65;100.00;95780.16;4902985;29;20028;-85
2023/10/05 05:34:50;;;;;;;18.90;14.27;;;;;;;14.07;100.00;95751.16;4897190;29;20047;-85
2023/10/05 05:37:28;;;;;;;22.55;20.20;;;;;;;13.63;100.00;95750.91;4896193;29;20027;-83
2023/10/05 05:39:54;;;;;;;18.52;16.63;;;;;;;13.57;100.00;95769.81;4943054;28;20038;-84
2023/10/05 05:42:20;;;;;;;17.42;15.75;;;;;;;14.03;100.00;95770.72;4916136;29;20043;-86
2023/10/05 05:44:48;;;;;;;21.45;12.95;;;;;;;14.76;100.00;95747.59;4921234;29;20031;-84
2023/10/05 05:47:16;;;;;;;15.20;12.75;;;;;;;15.34;100.00;95717.31;4915487;29;20031;-83
2023/10/05 05:49:45;;;;;;;16.92;12.50;;;;;;;15.44;100.00;95725.69;4933801;29;20043;-86
2023/10/05 05:52:12;;;;;;;20.52;13.43;;;;;;;15.62;100.00;95718.31;4916044;29;20031;-81
2023/10/05 05:54:37;;;;;;;20.48;12.30;;;;;;;16.38;100.00;95704.63;4916553;29;20045;-78
2023/10/05 05:57:06;;;;;;;12.80;10.88;;;;;;;16.58;100.00;95694.38;4938719;29;20027;-80
2023/10/05 05:59:34;;;;;;;15.18;11.70;;;;;;;15.92;100.00;95712.03;4942574;28;20038;-81
2023/10/05 06:02:01;;;;;;;15.02;11.32;;;;;;;16.47;100.00;95710.56;4923900;29;20031;-80
2023/10/05 06:04:27;;;;;;;15.38;11.55;;;;;;;16.83;100.00;95696.38;4940361;29;20036;-82
2023/10/05 06:06:52;;;;;;;16.05;12.90;;;;;;;17.36;100.00;95686.25;4924752;29;20808;-81
2023/10/05 06:09:22;;;;;;;13.63;11.57;;;;;;;17.37;100.00;95670.31;4916704;29;20023;-78
2023/10/05 06:11:51;;;;;;;15.13;12.13;;;;;;;16.90;100.00;95693.81;4937943;28;20018;-78
2023/10/05 06:14:17;;;;;;;14.45;11.65;;;;;;;17.07;100.00;95691.72;4926048;29;20059;-81
2023/10/05 06:16:43;;;;;;;14.68;13.13;;;;;;;17.75;100.00;95688.25;4941753;28;20078;-78
2023/10/05 06:19:08;;;;;;;12.77;11.45;;;;;;;18.24;100.00;95669.59;4924978;29;20559;-80
2023/10/05 06:21:34;;;;;;;17.27;11.80;;;;;;;20.84;100.00;95644.38;4942276;28;20061;-77
2023/10/05 06:24:02;;;;;;;16.60;10.52;;;;;;;23.46;90.76;95621.34;4925729;29;20085;-80
2023/10/05 06:26:27;;;;;;;15.60;10.52;;;;;;;23.72;83.34;95632.44;4938831;28;20101;-78
2023/10/05 06:28:53;;;;;;;16.77;11.95;;;;;;;24.26;77.30;95634.50;4938004;29;20052;-81
2023/10/05 06:31:19;;;;;;;13.02;11.65;;;;;;;25.71;70.92;95636.13;4915905;29;20497;-80
2023/10/05 06:33:46;;;;;;;13.30;11.50;;;;;;;25.76;69.38;95633.53;4924787;29;20023;-78
2023/10/05 06:36:11;;;;;;;11.55;9.43;;;;;;;26.14;66.91;95639.50;4923728;29;20048;-78
2023/10/05 06:38:37;;;;;;;14.55;10.68;;;;;;;26.16;64.48;95640.13;4919351;29;20175;-78
2023/10/05 06:41:03;;;;;;;11.30;10.18;;;;;;;26.51;64.82;95646.81;4932292;28;20031;-78
2023/10/05 06:43:34;;;;;;;16.88;10.35;;;;;;;26.57;62.83;95635.97;4915377;28;20039;-78
2023/10/05 06:46:09;;;;;;;11.43;9.05;;;;;;;26.46;62.02;95639.56;4916156;29;20024;-80
2023/10/05 06:48:36;;;;;;;13.52;8.73;;;;;;;27.19;58.46;95643.34;4923353;29;20035;-81
2023/10/05 06:51:01;;;;;;;9.63;8.63;;;;;;;26.96;58.26;95641.88;4930612;28;20573;-81
2023/10/05 06:53:27;;;;;;;12.40;8.13;;;;;;;26.87;59.57;95650.59;4937172;28;20110;-80
2023/10/05 06:55:54;;;;;;;8.48;7.60;;;;;;;27.75;55.44;95649.75;4934852;29;20039;-79
2023/10/05 06:58:19;;;;;;;11.20;8.07;;;;;;;27.73;55.28;95638.56;4938686;28;20429;-80
2023/10/05 07:00:45;;;;;;;11.00;7.43;;;;;;;28.82;51.53;95643.59;4922763;29;20075;-79
2023/10/05 07:03:11;;;;;;;8.55;7.53;;;;;;;28.61;51.35;95648.09;4920417;29;20046;-79
2023/10/05 07:05:36;;;;;;;11.15;8.02;;;;;;;29.60;48.89;95647.47;4922559;29;20038;-80
2023/10/05 07:08:02;;;;;;;8.77;6.90;;;;;;;29.36;48.46;95646.47;4921461;28;20031;-80
2023/10/05 07:10:27;;;;;;;14.25;7.72;;;;;;;29.53;47.08;95638.16;4941445;28;20035;-80
2023/10/05 07:12:53;;;;;;;10.00;7.70;;;;;;;29.31;47.71;95649.16;4935192;28;20126;-80
2023/10/05 07:15:19;;;;;;;8.15;7.13;;;;;;;27.83;51.10;95653.78;4905001;29;20027;-80
2023/10/05 07:17:45;;;;;;;8.05;6.20;;;;;;;28.00;50.25;95657.06;4921747;29;20035;-81
2023/10/05 07:20:11;;;;;;;10.85;7.60;;;;;;;28.83;48.68;95653.22;4905877;29;20028;-82
2023/10/05 07:22:40;;;;;;;7.95;6.78;;;;;;;28.43;48.90;95653.16;4890730;29;20040;-80
2023/10/05 07:25:08;;;;;;;8.10;6.50;;;;;;;28.95;47.80;95659.06;4904226;29;20032;-79
2023/10/05 07:27:35;;;;;;;9.90;6.80;;;;;;;29.71;45.87;95651.69;4896335;29;20174;-79
2023/10/05 07:30:03;;;;;;;;;;;;;;;29.02;47.37;95653.47;4912584;29;20110;-78
2023/10/05 07:32:29;;;;;;;12.20;7.18;;;;;;;29.36;47.12;95648.34;4921044;29;19919;-78
2023/10/05 07:34:54;;;;;;;13.02;7.88;;;;;;;29.56;45.99;95648.28;4920382;29;20035;-78
2023/10/05 07:37:20;;;;;;;13.20;7.40;;;;;;;29.25;45.66;95642.25;4918124;29;20473;-78
2023/10/05 07:39:46;;;;;;;12.65;7.28;;;;;;;29.82;45.33;95639.09;4896518;29;20063;-79
2023/10/05 07:42:12;;;;;;;17.40;7.82;;;;;;;29.06;45.47;95641.97;4922087;29;20118;-79
2023/10/05 07:44:37;;;;;;;15.35;7.30;;;;;;;24.73;60.03;95639.50;4914474;29;20119;-79
2023/10/05 07:47:04;;;;;;;14.13;7.05;;;;;;;23.52;70.48;95651.34;4898012;29;20035;-77
2023/10/05 07:49:29;;;;;;;12.05;7.40;;;;;;;23.28;73.06;95658.47;4922763;29;20035;-77
2023/10/05 07:51:55;;;;;;;16.08;7.65;;;;;;;23.21;73.81;95646.44;4903571;29;20027;-78
2023/10/05 07:54:20;;;;;;;12.43;7.28;;;;;;;23.08;73.35;95647.47;4917636;29;20036;-79
2023/10/05 07:56:46;;;;;;;13.68;7.22;;;;;;;22.95;74.37;95640.59;4924486;29;20110;-80
2023/10/05 07:59:14;;;;;;;13.35;8.10;;;;;;;21.39;80.50;95639.16;4907936;29;20162;-80
2023/10/05 08:01:40;;;;;;;14.70;7.07;;;;;;;22.79;76.01;95635.19;4925032;29;20032;-81
2023/10/05 08:04:05;;;;;;;15.55;7.93;;;;;;;23.19;74.77;95625.50;4921595;29;20023;-80
2023/10/05 08:06:31;;;;;;;13.48;7.15;;;;;;;22.63;75.50;95636.66;4887285;29;20376;-78
2023/10/05 08:08:57;;;;;;;10.18;7.55;;;;;;;23.04;74.76;95635.75;4906062;29;20028;-78
2023/10/05 08:11:23;;;;;;;12.45;7.30;;;;;;;23.23;73.13;95629.28;4922512;29;20044;-80
2023/10/05 08:13:48;;;;;;;17.25;8.20;;;;;;;23.38;70.55;95631.44;4915697;29;20051;-78
2023/10/05 08:16:13;;;;;;;14.75;7.20;;;;;;;23.28;72.90;95618.81;4907191;29;20411;-78
2023/10/05 08:18:39;;;;;;;14.20;7.55;;;;;;;23.24;73.15;95620.34;4919966;29;20027;-79
2023/10/05 08:21:05;;;;;;;13.80;7.40;;;;;;;23.69;71.98;95628.41;4924723;29;20098;-78
2023/10/05 08:23:30;;;;;;;11.63;6.90;;;;;;;23.86;70.05;95623.16;4908459;29;20027;-81
2023/10/05 08:25:59;;;;;;;10.43;7.43;;;;;;;22.02;74.95;95621.13;4924945;29;20603;-77
2023/10/05 08:28:25;;;;;;;11.88;6.90;;;;;;;23.68;73.19;95623.34;4923550;29;20616;-78
2023/10/05 08:31:06;;;;;;;14.20;6.82;;;;;;;24.86;67.23;95616.16;4920100;29;20059;-79
2023/10/05 08:33:35;;;;;;;16.33;7.20;;;;;;;25.43;62.95;95606.03;4924072;29;20080;-80
2023/10/05 08:36:06;;;;;;;11.10;7.15;;;;;;;26.34;59.98;95609.72;4925967;29;20079;-78
2023/10/05 08:38:35;;;;;;;20.58;6.25;;;;;;;26.95;57.20;95611.00;4925325;29;20541;-78
2023/10/05 08:41:06;;;;;;;11.27;7.13;;;;;;;26.53;56.97;95610.94;4926190;29;20413;-81
2023/10/05 08:43:33;;;;;;;11.30;6.90;;;;;;;26.25;57.62;95602.44;4924725;29;20059;-80
2023/10/05 08:46:05;;;;;;;15.15;7.30;;;;;;;26.38;57.19;95604.69;4925115;29;20031;-79
2023/10/05 08:51:11;;;;;;;12.63;6.65;;;;;;;26.02;60.09;95600.88;4924638;29;20027;-79
2023/10/05 08:53:43;;;;;;;12.60;6.95;;;;;;;26.38;59.24;95600.19;4924378;29;20040;-79
2023/10/05 08:56:13;;;;;;;10.98;6.50;;;;;;;26.32;58.91;95601.19;4923653;29;20040;-78
2023/10/05 08:58:41;;;;;;;9.23;6.60;;;;;;;25.87;59.84;95585.59;4924356;29;20039;-78
2023/10/05 09:01:25;;;;;;;11.95;5.80;;;;;;;25.74;60.05;95586.00;4924397;29;20510;-78
2023/10/05 09:04:01;;;;;;;16.73;6.55;;;;;;;25.99;60.15;95588.09;4926804;28;20035;-82
2023/10/05 09:06:26;;;;;;;11.73;6.75;;;;;;;25.16;62.58;95582.09;4924160;29;20034;-80
2023/10/05 09:08:53;;;;;;;11.73;6.55;;;;;;;25.90;61.26;95582.44;4924418;29;20039;-80
2023/10/05 09:11:31;;;;;;;8.57;6.65;;;;;;;25.53;62.02;95587.63;4925878;29;20546;-79
2023/10/05 09:14:12;;;;;;;9.85;7.05;;;;;;;25.40;63.29;95582.66;4922404;29;20055;-78
2023/10/05 09:16:41;;;;;;;14.52;7.22;;;;;;;25.34;62.76;95582.84;4909668;29;20067;-79
2023/10/05 09:19:17;;;;;;;7.60;6.85;;;;;;;25.76;60.88;95577.78;4924873;29;20086;-79
2023/10/05 09:21:46;;;;;;;8.15;6.32;;;;;;;26.10;59.98;95587.94;4923297;29;20032;-79
2023/10/05 09:24:19;;;;;;;14.95;6.88;;;;;;;25.11;61.81;95575.91;4924177;29;20028;-79
2023/10/05 09:27:15;;;;;;;12.95;6.85;;;;;;;25.53;62.81;95574.34;4922672;29;20023;-78
2023/10/05 09:29:41;;;;;;;8.30;6.47;;;;;;;25.90;60.95;95573.69;4925132;29;20075;-79
2023/10/05 09:32:25;;;;;;;15.25;7.18;;;;;;;25.61;61.26;95573.91;4923271;29;20086;-78
2023/10/05 09:34:51;;;;;;;15.85;6.80;;;;;;;25.77;60.22;95580.19;4922590;29;20024;-79
2023/10/05 09:37:18;;;;;;;13.68;7.65;;;;;;;25.03;63.35;95565.75;4923860;29;20032;-78
2023/10/05 09:39:49;;;;;;;10.40;6.90;;;;;;;25.55;61.13;95564.31;4922526;29;20023;-79
2023/10/05 09:42:25;;;;;;;17.38;7.72;;;;;;;26.14;60.59;95567.00;4925511;29;20024;-79
2023/10/05 09:44:58;;;;;;;8.85;7.45;;;;;;;26.48;59.60;95560.41;4923865;29;20079;-78
2023/10/05 09:47:32;;;;;;;18.17;7.53;;;;;;;26.48;58.65;95554.28;4923288;29;20042;-80
2023/10/05 09:50:00;;;;;;;8.32;7.38;;;;;;;26.62;55.98;95561.56;4923366;29;20077;-78
2023/10/05 09:52:35;;;;;;;14.05;7.07;;;;;;;26.52;57.89;95547.41;4922515;29;20060;-78
2023/10/05 09:55:05;;;;;;;14.00;7.55;;;;;;;26.60;58.13;95539.75;4923607;29;20031;-80
2023/10/05 09:57:41;;;;;;;11.07;7.00;;;;;;;27.08;58.34;95541.38;4920306;29;20535;-80
2023/10/05 10:00:27;;;;;;;16.02;7.93;;;;;;;26.91;57.39;95534.63;4909195;29;20032;-78
2023/10/05 10:02:59;;;;;;;15.43;8.15;;;;;;;26.94;58.17;95523.50;4911358;29;20068;-77
2023/10/05 10:05:32;;;;;;;18.13;7.78;;;;;;;26.99;56.90;95529.63;4919082;29;20394;-77
2023/10/05 10:08:08;;;;;;;12.65;7.80;;;;;;;26.86;57.35;95524.78;4922915;29;20059;-77
2023/10/05 10:10:36;;;;;;;12.80;8.07;;;;;;;26.09;58.55;95513.84;4921697;29;20098;-77
2023/10/05 10:13:10;;;;;;;14.15;7.72;;;;;;;26.29;58.99;95507.91;4916072;29;20138;-78
2023/10/05 10:15:39;;;;;;;14.48;7.75;;;;;;;25.84;61.43;95516.28;4923139;29;20059;-78
2023/10/05 10:18:14;;;;;;;15.50;8.10;;;;;;;26.49;60.21;95508.81;4922463;29;20027;-78
2023/10/05 10:20:45;;;;;;;15.38;7.82;;;;;;;26.57;59.03;95508.38;4923079;29;20085;-78
2023/10/05 10:23:14;;;;;;;16.05;8.20;;;;;;;26.28;59.85;95493.81;4909737;29;20518;-78
2023/10/05 10:25:40;;;;;;;10.57;7.72;;;;;;;26.10;59.02;95492.31;4909789;29;20120;-77
2023/10/05 10:28:17;;;;;;;10.07;7.38;;;;;;;25.63;61.04;95489.53;4908109;29;20589;-78
2023/10/05 10:31:18;;;;;;;12.73;8.25;;;;;;;25.85;59.93;95488.69;4911487;29;20103;-78
2023/10/05 10:33:50;;;;;;;11.38;7.88;;;;;;;26.03;59.80;95483.78;4920005;29;20399;-80
2023/10/05 10:36:18;;;;;;;14.80;7.75;;;;;;;25.22;61.55;95471.56;4903291;29;20047;-77
2023/10/05 10:38:50;;;;;;;10.00;7.32;;;;;;;25.51;58.71;95480.94;4924139;29;20080;-78
2023/10/05 10:41:17;;;;;;;17.80;7.45;;;;;;;25.41;61.27;95467.53;4922140;29;20517;-80
2023/10/05 10:43:55;;;;;;;13.40;7.60;;;;;;;25.98;60.04;95459.03;4922321;29;20027;-79
2023/10/05 10:46:30;;;;;;;15.10;7.95;;;;;;;25.88;59.75;95462.41;4915860;29;20569;-78
2023/10/05 10:48:57;;;;;;;12.02;8.18;;;;;;;25.41;59.68;95454.25;4917303;29;20043;-78
2023/10/05 10:51:24;;;;;;;12.30;7.68;;;;;;;25.33;61.12;95446.75;4904062;29;20604;-78
2023/10/05 10:53:58;;;;;;;13.05;6.88;;;;;;;25.59;60.19;95438.00;4906542;29;20115;-78
2023/10/05 10:56:35;;;;;;;14.18;7.47;;;;;;;25.55;60.28;95433.47;4916005;29;20714;-79
2023/10/05 10:59:23;;;;;;;13.00;7.10;;;;;;;24.71;61.66;95437.53;4917923;29;20521;-78
2023/10/05 11:01:59;;;;;;;11.13;7.50;;;;;;;25.24;60.23;95429.66;4916334;29;20398;-80
2023/10/05 11:04:32;;;;;;;10.93;7.38;;;;;;;24.89;59.00;95426.63;4924007;29;20040;-77
2023/10/05 11:07:00;;;;;;;14.60;7.95;;;;;;;24.81;61.92;95427.06;4921608;29;20027;-78
2023/10/05 11:09:30;;;;;;;15.07;7.18;;;;;;;24.99;60.81;95422.25;4922083;29;20524;-81
2023/10/05 11:12:11;;;;;;;10.20;8.02;;;;;;;25.69;61.07;95422.16;4922415;29;20138;-82
2023/10/05 11:14:42;;;;;;;18.55;7.57;;;;;;;25.88;59.88;95416.47;4921590;29;20082;-80
2023/10/05 11:17:23;;;;;;;8.60;7.35;;;;;;;25.86;59.12;95410.59;4922428;29;20035;-79
2023/10/05 11:19:49;;;;;;;10.13;7.55;;;;;;;25.69;58.96;95394.81;4921549;29;20498;-78
2023/10/05 11:22:23;;;;;;;9.40;7.07;;;;;;;25.99;58.95;95397.69;4922120;29;20035;-80
2023/10/05 11:25:14;;;;;;;9.68;7.03;;;;;;;25.90;57.56;95393.94;4922583;29;20720;-79
2023/10/05 11:27:48;;;;;;;11.52;6.90;;;;;;;25.86;57.85;95397.34;4920644;29;20485;-78
2023/10/05 11:30:24;;;;;;;15.10;6.35;;;;;;;26.02;55.72;95385.75;4925662;29;20453;-78
2023/10/05 11:32:56;;;;;;;11.10;6.75;;;;;;;26.19;56.50;95384.59;4924988;29;20094;-79
2023/10/05 11:35:42;;;;;;;9.68;6.57;;;;;;;26.12;55.48;95383.97;4925998;29;20046;-79
2023/10/05 11:38:14;;;;;;;13.80;7.20;;;;;;;26.01;55.87;95376.19;4926061;29;20115;-80
2023/10/05 11:40:48;;;;;;;10.57;7.25;;;;;;;26.01;54.75;95378.84;4924838;29;20028;-80
2023/10/05 11:43:15;;;;;;;11.18;7.40;;;;;;;25.70;56.89;95375.19;4925868;29;20035;-79
2023/10/05 11:45:57;;;;;;;10.63;7.63;;;;;;;25.84;55.88;95376.38;4926170;29;20034;-78
2023/10/05 11:48:40;;;;;;;14.23;6.88;;;;;;;25.75;56.43;95369.13;4925178;29;20044;-78
2023/10/05 11:51:10;;;;;;;12.63;7.90;;;;;;;25.97;54.39;95367.97;4927125;29;20054;-79
2023/10/05 11:53:36;;;;;;;11.50;6.97;;;;;;;25.75;55.37;95369.91;4908734;29;20417;-80
2023/10/05 11:56:04;;;;;;;10.60;6.95;;;;;;;25.71;54.87;95368.84;4927104;29;20024;-79
2023/10/05 11:58:33;;;;;;;10.60;7.38;;;;;;;25.67;53.68;95368.53;4925857;29;20048;-79
2023/10/05 12:01:03;;;;;;;8.52;7.03;;;;;;;25.56;53.97;95361.53;4925818;29;20107;-80
2023/10/05 12:03:31;;;;;;;10.13;7.05;;;;;;;25.41;54.73;95364.06;4924824;29;20486;-81
2023/10/05 12:06:01;;;;;;;7.78;6.10;;;;;;;25.22;54.06;95360.16;4908977;29;20155;-79
2023/10/05 12:08:30;;;;;;;13.80;7.55;;;;;;;25.85;55.67;95366.56;4925344;29;20573;-79
2023/10/05 12:11:00;;;;;;;7.40;6.63;;;;;;;25.95;54.26;95351.47;4924290;29;20083;-79
2023/10/05 12:13:27;;;;;;;9.23;7.18;;;;;;;25.99;52.86;95349.09;4925169;29;20054;-80
2023/10/05 12:15:53;;;;;;;11.32;6.85;;;;;;;26.12;53.37;95348.63;4924169;29;20035;-79
2023/10/05 12:18:21;;;;;;;8.85;6.28;;;;;;;26.24;52.91;95351.91;4925414;29;20054;-81
2023/10/05 12:20:47;;;;;;;;;;;;;;;26.54;52.23;95346.75;4926301;29;20032;-79
2023/10/05 12:23:14;;;;;;;7.10;6.40;;;;;;;26.43;52.60;95345.09;4924836;29;20087;-79
2023/10/05 12:25:41;;;;;;;10.30;6.45;;;;;;;26.47;52.64;95340.88;4924871;29;20031;-79
2023/10/05 12:28:08;;;;;;;11.00;7.10;;;;;;;26.10;52.27;95332.94;4925399;29;20042;-79
2023/10/05 12:30:39;;;;;;;10.50;7.13;;;;;;;25.91;52.53;95341.63;4926331;29;20034;-82
2023/10/05 12:33:06;;;;;;;10.95;6.45;;;;;;;26.35;52.46;95334.16;4924097;29;20058;-79
2023/10/05 12:35:32;;;;;;;10.88;6.70;;;;;;;26.00;52.39;95332.91;4923764;29;20139;-79
2023/10/05 12:38:00;;;;;;;9.27;6.35;;;;;;;26.20;52.32;95319.75;4917485;29;20118;-79
2023/10/05 12:40:33;;;;;;;8.52;5.95;;;;;;;26.26;52.61;95322.44;4909547;29;20047;-79
2023/10/05 12:42:59;;;;;;;7.68;6.63;;;;;;;26.50;52.84;95318.28;4913667;29;20032;-80
2023/10/05 12:45:25;;;;;;;9.93;6.07;;;;;;;26.37;50.98;95319.56;4908891;29;20047;-80
2023/10/05 12:47:57;;;;;;;7.18;6.45;;;;;;;26.10;49.65;95319.66;4911720;29;20044;-80
2023/10/05 12:50:27;;;;;;;11.77;6.72;;;;;;;26.59;51.76;95317.50;4905653;29;20157;-79
2023/10/05 12:52:53;;;;;;;8.40;7.05;;;;;;;26.86;50.80;95313.88;4914660;29;20518;-81
2023/10/05 12:55:42;;;;;;;9.18;7.35;;;;;;;26.82;50.65;95308.28;4914055;29;20525;-81
2023/10/05 12:58:09;;;;;;;14.27;7.10;;;;;;;26.40;49.63;95311.06;4913657;29;20417;-80
2023/10/05 13:00:40;;;;;;;8.65;5.88;;;;;;;26.10;49.71;95301.06;4919935;29;20094;-81
2023/10/05 13:03:05;;;;;;;8.52;6.57;;;;;;;26.06;50.76;95299.22;4922268;29;20035;-82
2023/10/05 13:05:31;;;;;;;9.90;6.40;;;;;;;26.31;50.89;95299.34;4923149;29;20035;-81
2023/10/05 13:08:02;;;;;;;10.25;6.25;;;;;;;26.01;49.77;95299.97;4919984;29;20118;-79
2023/10/05 13:10:31;;;;;;;7.43;5.60;;;;;;;25.87;50.26;95292.75;4924278;29;20043;-79
2023/10/05 13:13:01;;;;;;;9.20;6.00;;;;;;;25.98;49.88;95284.56;4930870;28;20039;-80
2023/10/05 13:15:32;;;;;;;15.23;6.40;;;;;;;25.73;48.91;95291.59;4927030;29;20031;-79
2023/10/05 13:18:20;;;;;;;11.00;6.25;;;;;;;25.74;49.26;95283.38;4912239;29;20389;-80
2023/10/05 13:20:49;;;;;;;7.45;5.97;;;;;;;26.05;49.89;95284.31;4928393;29;20038;-80
2023/10/05 13:23:19;;;;;;;12.50;7.88;;;;;;;25.96;48.58;95277.91;4927460;29;20556;-79
2023/10/05 13:25:48;;;;;;;12.65;7.90;;;;;;;25.70;46.52;95282.28;4926895;29;20031;-79
2023/10/05 13:28:15;;;;;;;6.60;5.18;;;;;;;25.76;47.43;95275.16;4926623;29;20035;-80
2023/10/05 13:30:43;;;;;;;7.00;6.20;;;;;;;25.96;47.59;95272.59;4944515;28;20027;-79
2023/10/05 13:33:21;;;;;;;8.23;5.32;;;;;;;25.74;46.44;95277.28;4926094;29;20278;-80
2023/10/05 13:35:47;;;;;;;9.25;6.15;;;;;;;26.08;46.72;95274.00;4928293;29;20118;-79
2023/10/05 13:38:12;;;;;;;7.68;5.22;;;;;;;25.93;45.60;95273.94;4942478;29;20118;-83
2023/10/05 13:40:57;;;;;;;6.53;5.30;;;;;;;25.64;46.23;95275.34;4926790;29;20657;-81
2023/10/05 13:43:27;;;;;;;10.38;5.97;;;;;;;25.58;45.92;95271.88;4912407;29;20802;-81
2023/10/05 13:45:59;;;;;;;7.75;5.78;;;;;;;25.47;46.79;95267.50;4925866;29;20031;-80
2023/10/05 13:48:29;;;;;;;12.80;5.72;;;;;;;25.45;45.93;95266.97;4927057;29;20854;-80
2023/10/05 13:50:55;;;;;;;7.68;5.97;;;;;;;25.66;45.36;95266.06;4942326;28;20448;-79
2023/10/05 13:53:23;;;;;;;7.95;5.68;;;;;;;25.66;45.68;95271.38;4942329;28;20031;-79
2023/10/05 13:55:51;;;;;;;8.02;5.57;;;;;;;25.79;46.03;95266.66;4925721;29;20073;-80
2023/10/05 13:58:17;;;;;;;6.65;5.63;;;;;;;25.58;45.06;95263.13;4926182;29;20523;-81
2023/10/05 14:00:44;;;;;;;6.43;5.68;;;;;;;25.54;45.88;95265.47;4942569;28;21030;-79
2023/10/05 14:03:12;;;;;;;6.65;5.78;;;;;;;25.41;46.78;95259.78;4941249;28;20038;-80
2023/10/05 14:05:38;;;;;;;7.45;6.72;;;;;;;25.27;47.33;95267.38;4943667;28;20501;-81
2023/10/05 14:08:07;;;;;;;7.53;5.80;;;;;;;25.30;47.38;95264.22;4942372;28;20031;-82
2023/10/05 14:10:34;;;;;;;9.13;6.20;;;;;;;25.22;47.70;95264.69;4927355;29;20111;-82
2023/10/05 14:13:00;;;;;;;7.85;6.38;;;;;;;25.28;47.45;95260.22;4924543;29;20043;-81
2023/10/05 14:15:25;;;;;;;13.60;5.78;;;;;;;25.19;47.76;95270.50;4926320;29;20110;-80
2023/10/05 14:17:51;;;;;;;7.15;6.35;;;;;;;25.18;47.84;95269.69;4943343;28;20023;-80
2023/10/05 14:20:18;;;;;;;7.57;5.90;;;;;;;25.10;47.15;95272.03;4942713;28;20114;-80
2023/10/05 14:22:45;;;;;;;7.68;5.53;;;;;;;24.90;48.05;95266.53;4926231;29;20027;-79
2023/10/05 14:25:17;;;;;;;10.73;6.13;;;;;;;24.90;47.83;95271.84;4941532;28;20114;-81
2023/10/05 14:27:46;;;;;;;8.07;6.43;;;;;;;24.78;49.23;95276.47;4941761;28;20398;-81
2023/10/05 14:30:17;;;;;;;8.05;6.70;;;;;;;24.73;55.08;95271.91;4942021;28;20054;-80
2023/10/05 14:32:43;;;;;;;11.27;7.03;;;;;;;24.50;60.08;95278.31;4926588;28;20114;-80
2023/10/05 14:35:10;;;;;;;11.90;6.93;;;;;;;24.35;62.31;95275.50;4925194;29;20058;-80
2023/10/05 14:37:42;;;;;;;14.85;7.50;;;;;;;24.09;64.72;95278.88;4939835;28;20042;-79
2023/10/05 14:40:15;;;;;;;12.05;7.93;;;;;;;23.84;66.80;95270.63;4937443;29;20130;-82
2023/10/05 14:42:42;;;;;;;8.85;7.13;;;;;;;23.95;67.86;95269.72;4908873;29;20042;-82
2023/10/05 14:45:08;;;;;;;10.90;8.10;;;;;;;23.84;68.67;95265.31;4925096;28;20027;-81
2023/10/05 14:47:34;;;;;;;10.38;7.68;;;;;;;23.61;70.10;95269.00;4942134;28;20037;-80
2023/10/05 14:50:02;;;;;;;10.38;6.70;;;;;;;23.46;71.90;95264.31;4942485;28;20031;-80
2023/10/05 14:52:28;;;;;;;12.27;7.80;;;;;;;23.38;72.52;95264.66;4942515;28;20026;-80
2023/10/05 14:54:54;;;;;;;12.52;7.40;;;;;;;23.28;71.71;95264.50;4924205;29;20027;-80
2023/10/05 14:57:21;;;;;;;9.82;7.78;;;;;;;23.20;73.19;95275.50;4925334;29;20039;-81
2023/10/05 14:59:46;;;;;;;9.45;7.13;;;;;;;23.15;74.23;95270.13;4942106;28;20886;-83
2023/10/05 15:02:12;;;;;;;8.57;7.10;;;;;;;22.97;76.12;95279.09;4942938;28;20023;-81
2023/10/05 15:04:37;;;;;;;11.73;7.35;;;;;;;23.01;76.26;95269.66;4943129;28;20085;-80
2023/10/05 15:07:04;;;;;;;10.77;7.10;;;;;;;22.86;78.03;95279.19;4946473;28;20093;-80
2023/10/05 15:09:34;;;;;;;9.15;7.18;;;;;;;22.84;77.73;95273.31;4913245;29;20515;-79
2023/10/05 15:12:01;;;;;;;10.32;6.82;;;;;;;22.72;77.85;95280.50;4929415;29;20030;-80
2023/10/05 15:14:26;;;;;;;10.10;6.47;;;;;;;22.71;78.76;95281.53;4946508;28;20221;-80
2023/10/05 15:16:52;;;;;;;9.65;7.47;;;;;;;22.73;78.17;95277.66;4928633;29;20031;-80
2023/10/05 15:19:17;;;;;;;8.25;7.43;;;;;;;22.74;78.46;95284.50;4946630;28;20035;-79
2023/10/05 15:21:42;;;;;;;50.50;10.27;;;;;;;22.72;78.81;95291.88;4945566;29;20870;-80
2023/10/05 15:24:10;;;;;;;11.05;8.35;;;;;;;22.67;79.35;95283.84;4929141;28;20037;-80
2023/10/05 15:26:40;;;;;;;8.57;7.43;;;;;;;22.70;80.02;95288.66;4945867;28;20035;-80
2023/10/05 15:29:09;;;;;;;9.52;6.97;;;;;;;22.57;80.26;95292.38;4929240;29;20087;-80
2023/10/05 15:31:35;;;;;;;10.10;7.35;;;;;;;22.43;80.54;95287.63;4927982;29;20031;-81
2023/10/05 15:34:03;;;;;;;12.55;6.93;;;;;;;22.37;80.51;95284.09;4926427;29;20361;-82
2023/10/05 15:36:32;;;;;;;8.18;6.70;;;;;;;22.17;82.11;95278.41;4913595;29;20567;-80
2023/10/05 15:38:59;;;;;;;15.10;6.47;;;;;;;22.35;74.99;95290.63;4945008;28;20034;-83
2023/10/05 15:41:25;;;;;;;8.23;7.00;;;;;;;22.17;78.22;95283.69;4945808;28;20042;-81
2023/10/05 15:43:51;;;;;;;8.23;6.28;;;;;;;22.27;68.53;95283.88;4909947;29;20027;-82
2023/10/05 15:46:16;;;;;;;14.80;6.63;;;;;;;21.96;69.84;95286.97;4927150;29;20027;-80
2023/10/05 15:48:42;;;;;;;11.55;6.65;;;;;;;21.95;69.59;95295.91;4945843;28;20536;-81
2023/10/05 15:51:11;;;;;;;11.43;6.90;;;;;;;21.80;70.58;95285.00;4928086;29;20027;-81
2023/10/05 15:53:37;;;;;;;;;;;;;;;21.64;72.41;95285.72;4946763;29;20097;-81
2023/10/05 15:56:02;;;;;;;9.95;8.35;;;;;;;21.47;74.12;95289.06;4945026;29;20400;-81
2023/10/05 15:58:29;;;;;;;10.07;7.38;;;;;;;21.29;74.49;95285.69;4928439;29;20035;-82
2023/10/05 16:00:59;;;;;;;9.57;7.10;;;;;;;21.04;77.16;95272.72;4945031;28;20122;-82
2023/10/05 16:03:25;;;;;;;10.18;7.47;;;;;;;20.97;78.31;95267.56;4933052;28;20028;-82
2023/10/05 16:05:51;;;;;;;27.67;8.60;;;;;;;20.87;78.83;95277.06;4903891;29;20563;-81
2023/10/05 16:08:19;;;;;;;15.20;7.47;;;;;;;20.81;81.03;95284.00;4932785;29;20040;-82
2023/10/05 16:10:46;;;;;;;48.78;10.77;;;;;;;20.68;84.39;95283.44;4918814;29;20023;-82
2023/10/05 16:13:11;;;;;;;21.58;8.57;;;;;;;20.53;86.96;95283.81;4905507;29;20131;-81
2023/10/05 16:15:38;;;;;;;17.33;12.70;;;;;;;20.37;86.89;95287.06;4917397;29;20107;-81
2023/10/05 16:18:04;;;;;;;14.25;10.10;;;;;;;20.28;87.55;95283.97;4923516;29;20031;-82
2023/10/05 16:20:31;;;;;;;56.80;13.52;;;;;;;20.09;91.07;95284.97;4945870;28;20508;-81
2023/10/05 16:23:03;;;;;;;124.15;15.70;;;;;;;19.78;96.78;95293.81;4944991;28;20046;-80
2023/10/05 16:25:28;;;;;;;68.47;11.32;;;;;;;19.61;98.64;95298.06;4938653;29;20031;-82
2023/10/05 16:27:54;;;;;;;26.23;9.13;;;;;;;19.56;99.07;95291.81;4927957;29;20497;-82
2023/10/05 16:30:21;;;;;;;23.02;8.82;;;;;;;19.47;100.00;95301.81;4931150;29;20047;-82
2023/10/05 16:32:57;;;;;;;26.70;8.35;;;;;;;19.04;100.00;95300.97;4918227;29;20031;-82
2023/10/05 16:35:23;;;;;;;32.92;8.30;;;;;;;19.01;100.00;95296.16;4913913;29;20047;-82
2023/10/05 16:37:49;;;;;;;21.83;8.75;;;;;;;19.21;98.26;95302.03;4919761;29;20082;-83
2023/10/05 16:40:18;;;;;;;23.17;8.35;;;;;;;19.10;97.79;95300.94;4930542;28;20027;-82